Terminal Aerodrome Forecast
Issued by NWS

Home | Current Version | Previous Version | Text Only | Print | Product List | Glossary On
Versions: 1 2 3 4 5 6 7 8 9 10 11 12 13 14 15 16 17 18 19 20 21 22 23
000
FTAK31 PAJN 260500
TAFAKT
TAF
PAKT 260525Z 2606/2706 VRB05KT P6SM BKN010 OVC015
     FM261000 31005KT P6SM SCT010 BKN035
     FM261800 33007KT P6SM SCT100
     FM270200 32009KT P6SM SKC
      AMD LTD TO CLD VIS AND WIND 2606/2615=

USA.gov is the U.S. government's official web portal to all federal, state and local government web resources and services.